Time;durP1;ratioP1;P1;durP2;ratioP2;P2;SDS_P1;SDS_P2;PMS_P1;PMS_P2;Temp;Humidity;BMP_temperature;BMP_pressure;BME280_temperature;BME280_humidity;BME280_pressure;Samples;Min_cycle;Max_cycle;Signal;HPM_P1;HPM_P2
2024/04/16 00:00:13;;;;;;;2.67;0.80;;;11.00;59.40;12.60;99933.00;;;;5450039;26;21008;-81
2024/04/16 00:02:42;;;;;;;6.03;1.58;;;11.00;59.30;12.60;99932.00;;;;5451263;26;20240;-84
2024/04/16 00:05:08;;;;;;;6.05;0.95;;;11.00;59.20;12.60;99927.00;;;;5439967;26;20300;-84
2024/04/16 00:07:36;;;;;;;6.45;1.17;;;11.10;59.20;12.70;99922.00;;;;5451551;26;20228;-80
2024/04/16 00:10:03;;;;;;;3.20;0.75;;;11.10;59.20;12.70;99921.00;;;;5453021;26;20709;-80
2024/04/16 00:12:32;;;;;;;6.40;1.05;;;11.10;59.10;12.70;99914.00;;;;5453096;26;20340;-81
2024/04/16 00:14:58;;;;;;;5.22;1.15;;;11.10;59.00;12.70;99908.00;;;;5450958;26;20242;-81
2024/04/16 00:17:29;;;;;;;5.90;1.45;;;11.20;59.00;12.80;99909.00;;;;5448917;26;20240;-86
2024/04/16 00:19:56;;;;;;;5.07;1.13;;;11.20;59.00;12.80;99912.00;;;;5442460;26;20357;-85
2024/04/16 00:22:24;;;;;;;4.57;0.95;;;11.30;58.90;12.90;99910.00;;;;5441889;26;20895;-82
2024/04/16 00:24:50;;;;;;;2.88;0.50;;;11.30;58.80;12.90;99911.00;;;;5434208;26;20337;-85
2024/04/16 00:27:28;;;;;;;3.30;0.60;;;11.40;58.80;12.80;99898.00;;;;5451833;26;20232;-84
2024/04/16 00:29:54;;;;;;;3.58;1.30;;;11.40;58.70;12.90;99899.00;;;;5444275;26;20239;-85
2024/04/16 00:32:23;;;;;;;4.10;1.30;;;11.40;58.50;12.90;99903.00;;;;5451027;26;20228;-83
2024/04/16 00:34:52;;;;;;;3.53;0.65;;;11.40;58.90;12.90;99901.00;;;;5437226;26;20745;-82
2024/04/16 00:37:21;;;;;;;4.53;1.10;;;11.50;58.40;13.00;99888.00;;;;5432856;26;20751;-84
2024/04/16 00:39:48;;;;;;;2.67;1.02;;;11.50;58.40;13.00;99879.00;;;;5451139;26;20276;-77
2024/04/16 00:42:17;;;;;;;2.97;0.70;;;11.50;58.30;13.10;99878.00;;;;5453056;26;20625;-84
2024/04/16 00:44:43;;;;;;;3.50;0.68;;;11.60;58.40;13.10;99867.00;;;;5450678;26;20589;-85
2024/04/16 00:47:14;;;;;;;3.97;0.70;;;11.60;58.20;13.10;99861.00;;;;5452467;26;20270;-86
2024/04/16 00:49:41;;;;;;;3.55;0.75;;;11.60;58.20;13.10;99865.00;;;;5442699;26;20236;-84
2024/04/16 00:52:12;;;;;;;4.25;0.90;;;11.60;58.10;13.10;99895.00;;;;5441546;26;20272;-83
2024/04/16 00:54:38;;;;;;;1.33;0.60;;;11.60;58.20;13.10;99869.00;;;;5442117;26;20600;-79
2024/04/16 00:57:08;;;;;;;3.67;0.85;;;11.70;58.20;13.10;99871.00;;;;5445260;26;20291;-85
2024/04/16 00:59:38;;;;;;;1.75;0.70;;;11.70;58.20;13.00;99859.00;;;;5430845;26;20788;-83
2024/04/16 01:02:07;;;;;;;2.00;0.38;;;11.70;58.10;13.00;99865.00;;;;5448908;26;20653;-85
2024/04/16 01:04:33;;;;;;;3.70;0.80;;;11.60;58.10;13.00;99853.00;;;;5452646;26;20239;-84
2024/04/16 01:07:02;;;;;;;3.35;0.75;;;11.60;58.20;13.00;99851.00;;;;5450830;26;20243;-82
2024/04/16 01:09:31;;;;;;;3.65;0.82;;;11.60;58.30;12.90;99853.00;;;;5433058;26;20581;-81
2024/04/16 01:12:00;;;;;;;2.90;0.65;;;11.50;58.20;12.90;99852.00;;;;5450019;26;20342;-83
2024/04/16 01:14:26;;;;;;;3.00;1.08;;;11.50;58.20;12.90;99838.00;;;;5450549;26;20686;-82
2024/04/16 01:16:55;;;;;;;2.45;0.90;;;11.40;58.30;12.80;99847.00;;;;5449770;26;20278;-81
2024/04/16 01:19:21;;;;;;;1.58;0.38;;;11.40;58.40;12.80;99837.00;;;;5436179;26;20728;-81
2024/04/16 01:21:50;;;;;;;2.70;0.50;;;11.30;58.30;12.70;99840.00;;;;5449158;26;20283;-83
2024/04/16 01:24:20;;;;;;;1.95;0.40;;;11.30;58.40;12.70;99834.00;;;;5450922;26;20287;-83
2024/04/16 01:26:49;;;;;;;2.38;0.50;;;11.30;58.50;12.70;99834.00;;;;5445985;26;20275;-83
2024/04/16 01:29:15;;;;;;;5.30;0.65;;;11.30;58.60;12.70;99829.00;;;;5451113;26;20275;-77
2024/04/16 01:31:44;;;;;;;1.85;0.30;;;11.20;58.60;12.70;99836.00;;;;5447765;26;20266;-84
2024/04/16 01:34:10;;;;;;;2.58;0.80;;;11.20;58.70;12.70;99847.00;;;;5434512;26;20271;-82
2024/04/16 01:36:40;;;;;;;1.38;0.45;;;11.20;58.70;12.70;99839.00;;;;5435094;26;20291;-85
2024/04/16 01:39:06;;;;;;;3.75;0.52;;;11.10;58.70;12.60;99826.00;;;;5430681;26;20283;-86
2024/04/16 01:41:37;;;;;;;1.60;0.28;;;11.10;58.70;12.60;99821.00;;;;5444497;26;20228;-86
2024/04/16 01:44:04;;;;;;;2.05;0.35;;;11.10;58.70;12.60;99808.00;;;;5425959;26;20295;-85
2024/04/16 01:46:33;;;;;;;1.90;0.30;;;11.10;58.70;12.60;99805.00;;;;5445402;26;20270;-83
2024/04/16 01:48:59;;;;;;;1.10;0.43;;;11.10;58.70;12.60;99806.00;;;;5450426;26;20336;-82
2024/04/16 01:51:27;;;;;;;0.93;0.20;;;11.10;58.80;12.60;99823.00;;;;5450904;26;20232;-83
2024/04/16 01:53:53;;;;;;;0.95;0.22;;;11.10;58.90;12.60;99847.00;;;;5449595;26;20319;-84
2024/04/16 01:56:22;;;;;;;4.05;1.02;;;11.10;58.80;12.60;99870.00;;;;5431802;26;20232;-85
2024/04/16 01:58:50;;;;;;;0.88;0.20;;;11.10;59.00;12.50;99848.00;;;;5444768;26;20240;-83
2024/04/16 02:01:19;;;;;;;1.55;0.28;;;11.10;59.20;12.50;99852.00;;;;5448478;26;20232;-85
2024/04/16 02:03:45;;;;;;;0.45;0.05;;;11.10;59.00;12.40;99854.00;;;;5450926;26;20317;-86
2024/04/16 02:06:14;;;;;;;1.35;0.20;;;11.00;58.80;12.40;99844.00;;;;5451727;26;20244;-88
2024/04/16 02:08:40;;;;;;;0.55;0.20;;;11.00;59.20;12.30;99835.00;;;;5453363;26;20345;-89
2024/04/16 02:11:08;;;;;;;1.98;0.10;;;10.90;59.20;12.30;99826.00;;;;5446954;26;20562;-94
2024/04/16 02:13:34;;;;;;;0.57;0.03;;;10.90;59.40;12.20;99827.00;;;;5451892;26;20235;-87
2024/04/16 02:16:08;;;;;;;0.75;0.00;;;10.80;59.30;12.20;99835.00;;;;5451000;26;20266;-88
2024/04/16 02:18:35;;;;;;;0.55;0.00;;;10.70;59.20;12.10;99831.00;;;;5452518;26;20266;-93
2024/04/16 02:21:03;;;;;;;0.73;0.22;;;10.70;59.30;12.10;99834.00;;;;5451519;26;20545;-89
2024/04/16 02:23:29;;;;;;;1.55;0.10;;;10.60;59.50;12.00;99810.00;;;;5453043;26;20336;-93
2024/04/16 02:25:58;;;;;;;1.08;0.20;;;10.50;59.30;12.00;99806.00;;;;5453787;26;20263;-94
2024/04/16 02:28:24;;;;;;;0.00;0.00;;;10.50;59.50;12.00;99797.00;;;;5451923;26;20240;-89
2024/04/16 02:30:53;;;;;;;3.42;0.30;;;10.40;59.60;11.90;99800.00;;;;5451915;26;20314;-90
2024/04/16 02:33:21;;;;;;;0.20;0.10;;;10.40;59.70;11.90;99796.00;;;;5452220;26;20329;-90
2024/04/16 02:35:50;;;;;;;1.00;0.30;;;10.30;59.80;11.90;99797.00;;;;5434095;26;20229;-90
2024/04/16 02:38:16;;;;;;;0.65;0.10;;;10.30;59.80;11.90;99795.00;;;;5457202;26;20244;-91
2024/04/16 02:40:45;;;;;;;0.88;0.00;;;10.30;60.00;11.80;99795.00;;;;5454311;26;20232;-92
2024/04/16 02:43:11;;;;;;;0.20;0.10;;;10.30;60.00;11.80;99795.00;;;;5456785;26;20725;-92
2024/04/16 02:45:41;;;;;;;0.30;0.10;;;10.20;59.90;11.70;99782.00;;;;5454052;26;20228;-89
2024/04/16 02:48:07;;;;;;;2.20;0.30;;;10.20;59.90;11.70;99777.00;;;;5453935;26;20244;-92
2024/04/16 02:50:39;;;;;;;1.30;0.22;;;10.10;59.80;11.60;99782.00;;;;5453613;26;20296;-90
2024/04/16 02:53:05;;;;;;;0.45;0.20;;;10.10;60.10;11.70;99762.00;;;;5445752;26;20241;-83
2024/04/16 02:55:34;;;;;;;1.05;0.10;;;10.10;60.30;11.60;99781.00;;;;5456466;26;20244;-88
2024/04/16 02:58:00;;;;;;;0.95;0.10;;;10.00;59.90;11.60;99785.00;;;;5460664;26;20243;-90
2024/04/16 03:00:30;;;;;;;0.20;0.10;;;10.00;60.30;11.60;99788.00;;;;5470449;26;20775;-81
2024/04/16 03:02:56;;;;;;;1.25;0.20;;;10.00;60.50;11.60;99798.00;;;;5469300;26;20224;-85
2024/04/16 03:05:25;;;;;;;2.42;0.40;;;10.00;60.50;11.60;99783.00;;;;5460126;26;20225;-77
2024/04/16 03:07:53;;;;;;;1.10;0.10;;;10.00;60.60;11.60;99764.00;;;;5463504;26;20236;-81
2024/04/16 03:10:22;;;;;;;0.55;0.10;;;10.00;60.80;11.60;99767.00;;;;5469048;26;20262;-78
2024/04/16 03:12:52;;;;;;;0.80;0.20;;;9.90;60.80;11.60;99766.00;;;;5468934;26;20318;-84
2024/04/16 03:15:21;;;;;;;1.17;0.20;;;9.90;61.00;11.60;99750.00;;;;5458170;26;20232;-81
2024/04/16 03:17:47;;;;;;;0.73;0.10;;;10.00;61.30;11.60;99747.00;;;;5436482;26;20291;-84
2024/04/16 03:20:15;;;;;;;3.10;0.57;;;10.00;61.20;11.60;99745.00;;;;5443543;26;20328;-90
2024/04/16 03:22:41;;;;;;;0.30;0.17;;;10.00;61.30;11.70;99734.00;;;;5427342;26;20256;-91
2024/04/16 03:25:13;;;;;;;1.13;0.30;;;10.00;61.40;11.70;99739.00;;;;5430922;26;20228;-92
2024/04/16 03:27:39;;;;;;;1.25;0.38;;;10.00;61.60;11.70;99734.00;;;;5446862;26;20228;-92
2024/04/16 03:30:10;;;;;;;2.38;0.60;;;10.10;61.70;11.70;99719.00;;;;5439964;26;20240;-91
2024/04/16 03:32:36;;;;;;;0.65;0.15;;;10.10;61.80;11.80;99718.00;;;;5451558;26;20228;-91
2024/04/16 03:35:06;;;;;;;0.90;0.10;;;10.10;61.80;11.80;99719.00;;;;5447881;26;20236;-95
2024/04/16 03:37:34;;;;;;;0.60;0.20;;;10.10;61.80;11.80;99711.00;;;;5451649;26;20308;-86
2024/04/16 03:40:03;;;;;;;0.80;0.25;;;10.10;61.70;11.80;99700.00;;;;5450398;26;20332;-91
2024/04/16 03:42:35;;;;;;;0.82;0.30;;;10.20;61.80;11.80;99704.00;;;;5422942;26;20225;-93
2024/04/16 03:45:01;;;;;;;0.88;0.20;;;10.20;61.90;11.90;99699.00;;;;5450447;26;20303;-91
2024/04/16 03:47:31;;;;;;;0.77;0.30;;;10.20;61.90;11.90;99700.00;;;;5417109;26;20225;-86
2024/04/16 03:49:57;;;;;;;1.17;0.30;;;10.20;62.00;11.90;99690.00;;;;5416944;26;20268;-92
2024/04/16 03:52:26;;;;;;;2.00;0.20;;;10.20;61.90;11.90;99692.00;;;;5448528;26;20236;-92
2024/04/16 03:54:52;;;;;;;1.42;0.38;;;10.20;62.00;12.00;99678.00;;;;5450697;26;20228;-90
2024/04/16 03:57:21;;;;;;;2.92;0.47;;;10.20;61.90;12.00;99674.00;;;;5442762;26;20232;-92
2024/04/16 04:02:37;;;;;;;0.60;0.30;;;10.30;62.10;12.00;99665.00;;;;5452713;26;20259;-89
2024/04/16 04:05:07;;;;;;;0.70;0.40;;;10.30;62.00;12.00;99671.00;;;;5449319;26;20686;-84
2024/04/16 04:07:33;;;;;;;0.20;0.13;;;10.30;62.00;12.00;99674.00;;;;5448265;26;20239;-89
2024/04/16 04:10:01;;;;;;;1.73;0.55;;;10.30;62.10;12.00;99660.00;;;;5448765;26;20275;-87
2024/04/16 04:12:27;;;;;;;1.05;0.43;;;10.40;62.20;12.00;99662.00;;;;5433139;26;20233;-85
2024/04/16 04:14:58;;;;;;;2.92;0.93;;;10.30;62.30;12.00;99649.00;;;;5435253;26;20333;-86
2024/04/16 04:17:24;;;;;;;1.92;0.57;;;10.40;62.70;12.10;99648.00;;;;5446314;26;20334;-89
2024/04/16 04:19:53;;;;;;;2.42;0.70;;;10.40;62.40;12.10;99654.00;;;;5437946;26;20229;-90
2024/04/16 04:22:19;;;;;;;1.60;0.60;;;10.40;62.40;12.10;99650.00;;;;5417765;26;20271;-85
2024/04/16 04:24:48;;;;;;;1.58;0.50;;;10.40;62.40;12.10;99645.00;;;;5453192;26;20232;-89
2024/04/16 04:27:14;;;;;;;3.13;0.70;;;10.40;62.70;12.10;99640.00;;;;5435078;26;20283;-85
2024/04/16 04:29:43;;;;;;;1.92;0.50;;;10.40;62.90;12.10;99639.00;;;;5450234;26;20671;-87
2024/04/16 04:32:11;;;;;;;2.33;0.50;;;10.50;62.90;12.10;99623.00;;;;5432979;26;20288;-85
2024/04/16 04:34:40;;;;;;;1.25;0.30;;;10.50;62.60;12.10;99633.00;;;;5427678;26;20271;-91
2024/04/16 04:37:06;;;;;;;1.98;0.55;;;10.50;62.20;12.10;99623.00;;;;5435286;26;20331;-87
2024/04/16 04:39:35;;;;;;;0.32;0.20;;;10.50;62.20;12.10;99630.00;;;;5438042;26;20669;-83
2024/04/16 04:42:01;;;;;;;0.50;0.17;;;10.50;62.30;12.10;99616.00;;;;5453570;26;20224;-87
2024/04/16 04:44:29;;;;;;;0.60;0.17;;;10.50;62.50;12.10;99618.00;;;;5452197;26;20240;-87
2024/04/16 04:46:55;;;;;;;1.75;0.30;;;10.50;62.50;12.10;99600.00;;;;5450746;26;20623;-82
2024/04/16 04:49:27;;;;;;;0.50;0.30;;;10.50;62.50;12.00;99601.00;;;;5439972;26;20694;-84
2024/04/16 04:51:53;;;;;;;2.13;0.28;;;10.50;62.20;12.00;99585.00;;;;5418541;26;20222;-83
2024/04/16 04:54:22;;;;;;;0.52;0.10;;;10.50;62.70;12.00;99566.00;;;;5445169;26;20232;-90
2024/04/16 04:56:48;;;;;;;1.63;0.10;;;10.50;62.60;11.90;99570.00;;;;5444912;26;20237;-83
2024/04/16 04:59:17;;;;;;;0.47;0.13;;;10.40;63.20;11.90;99556.00;;;;5448973;26;20244;-87
2024/04/16 05:01:43;;;;;;;1.88;0.20;;;10.40;62.30;11.90;99560.00;;;;5428246;26;20256;-86
2024/04/16 05:04:12;;;;;;;2.72;0.30;;;10.40;62.30;11.90;99560.00;;;;5451562;26;20856;-89
2024/04/16 05:06:41;;;;;;;0.55;0.20;;;10.40;62.30;11.80;99547.00;;;;5447081;26;20344;-82
2024/04/16 05:09:09;;;;;;;0.10;0.00;;;10.40;62.40;11.90;99543.00;;;;5434572;26;20232;-83
2024/04/16 05:11:35;;;;;;;1.35;0.17;;;10.40;62.70;11.90;99535.00;;;;5452499;26;20263;-81
2024/04/16 05:14:07;;;;;;;1.58;0.30;;;10.30;62.60;11.90;99529.00;;;;5452418;26;20244;-85
2024/04/16 05:16:33;;;;;;;0.30;0.10;;;10.30;63.00;11.90;99532.00;;;;5451569;26;20658;-78
2024/04/16 05:19:02;;;;;;;0.45;0.20;;;10.30;62.90;11.90;99541.00;;;;5451452;26;20235;-83
2024/04/16 05:21:28;;;;;;;1.35;0.30;;;10.30;63.20;11.90;99530.00;;;;5444709;26;20240;-83
2024/04/16 05:24:02;;;;;;;0.50;0.10;;;10.30;63.20;11.90;99540.00;;;;5451458;26;21893;-82
2024/04/16 05:26:28;;;;;;;1.27;0.35;;;10.30;63.30;11.90;99543.00;;;;5451648;26;20228;-81
2024/04/16 05:28:56;;;;;;;1.15;0.10;;;10.30;62.90;12.00;99547.00;;;;5450846;26;20236;-82
2024/04/16 05:31:23;;;;;;;0.95;0.03;;;10.40;63.20;12.00;99545.00;;;;5451673;26;20340;-84
2024/04/16 05:33:54;;;;;;;1.77;0.40;;;10.40;63.50;12.00;99548.00;;;;5450016;26;20605;-84
2024/04/16 05:36:20;;;;;;;1.95;0.57;;;10.40;63.60;12.00;99560.00;;;;5446875;26;20805;-86
2024/04/16 05:38:49;;;;;;;1.02;0.40;;;10.40;64.10;12.10;99547.00;;;;5439009;26;20228;-86
2024/04/16 05:41:18;;;;;;;0.95;0.20;;;10.50;64.00;12.10;99555.00;;;;5447361;26;20307;-83
2024/04/16 05:43:47;;;;;;;0.85;0.50;;;10.50;64.10;12.20;99564.00;;;;5439390;26;20340;-87
2024/04/16 05:46:14;;;;;;;1.42;0.57;;;10.50;64.20;12.20;99563.00;;;;5452523;26;20601;-88
2024/04/16 05:48:42;;;;;;;3.00;0.70;;;10.60;64.30;12.30;99569.00;;;;5445849;26;20232;-85
2024/04/16 05:51:08;;;;;;;2.80;0.45;;;10.70;64.70;12.30;99580.00;;;;5440371;26;20772;-92
2024/04/16 05:53:37;;;;;;;2.83;0.47;;;10.70;64.70;12.40;99582.00;;;;5435042;26;20228;-90
2024/04/16 05:56:07;;;;;;;3.60;0.68;;;10.80;64.90;12.40;99570.00;;;;5450350;26;20667;-92
2024/04/16 05:58:35;;;;;;;6.28;0.88;;;10.80;65.10;12.50;99570.00;;;;5448183;26;20275;-92
2024/04/16 06:01:07;;;;;;;3.47;0.90;;;10.90;65.20;12.60;99574.00;;;;5448241;26;20293;-87
2024/04/16 06:03:33;;;;;;;3.58;0.60;;;11.00;65.20;12.70;99605.00;;;;5445679;26;20240;-81
2024/04/16 06:06:02;;;;;;;6.07;1.10;;;11.00;65.40;12.70;99589.00;;;;5450541;26;20231;-84
2024/04/16 06:08:29;;;;;;;3.05;0.95;;;11.10;65.20;12.80;99597.00;;;;5448961;26;20297;-81
2024/04/16 06:10:57;;;;;;;4.20;0.82;;;11.20;65.20;12.80;99593.00;;;;5446718;26;20236;-88
2024/04/16 06:13:23;;;;;;;1.45;0.45;;;11.30;65.40;12.90;99597.00;;;;5446244;26;20336;-88
2024/04/16 06:15:55;;;;;;;4.20;1.13;;;11.40;65.80;12.90;99604.00;;;;5448030;26;20232;-88
2024/04/16 06:18:22;;;;;;;2.75;0.65;;;11.40;64.90;13.10;99612.00;;;;5452918;26;20312;-85
2024/04/16 06:20:51;;;;;;;5.45;1.13;;;11.50;64.80;13.10;99599.00;;;;5448828;26;20263;-87
2024/04/16 06:23:17;;;;;;;2.67;1.05;;;11.60;64.90;13.10;99607.00;;;;5448686;26;20357;-85
2024/04/16 06:25:45;;;;;;;4.15;0.90;;;11.60;64.50;13.20;99596.00;;;;5452863;26;20232;-89
2024/04/16 06:28:12;;;;;;;4.05;1.10;;;11.70;64.50;13.30;99601.00;;;;5452784;26;20647;-86
2024/04/16 06:30:40;;;;;;;5.43;1.08;;;11.80;64.70;13.30;99605.00;;;;5448091;26;20232;-82
2024/04/16 06:33:09;;;;;;;3.50;0.95;;;11.80;64.40;13.40;99608.00;;;;5452273;26;20673;-84
2024/04/16 06:35:38;;;;;;;5.72;0.82;;;11.90;64.40;13.50;99607.00;;;;5452123;26;20216;-87
2024/04/16 06:38:04;;;;;;;3.53;0.80;;;11.90;64.20;13.50;99615.00;;;;5452707;26;20216;-88
2024/04/16 06:40:33;;;;;;;3.42;0.75;;;12.00;64.40;13.60;99618.00;;;;5450377;26;20228;-86
2024/04/16 06:42:59;;;;;;;5.07;0.80;;;12.00;64.10;13.60;99625.00;;;;5450959;26;20369;-90
2024/04/16 06:45:28;;;;;;;7.32;1.05;;;12.10;64.00;13.70;99631.00;;;;5454940;26;20309;-88
2024/04/16 06:47:54;;;;;;;1.92;0.60;;;12.20;63.70;13.70;99659.00;;;;5453399;26;20232;-87
2024/04/16 06:50:25;;;;;;;5.60;1.40;;;12.20;63.60;13.70;99651.00;;;;5446446;26;20289;-84
2024/04/16 06:52:54;;;;;;;3.38;0.82;;;12.20;63.70;13.70;99652.00;;;;5451634;26;20288;-82
2024/04/16 06:55:23;;;;;;;3.75;1.08;;;12.30;63.60;13.70;99672.00;;;;5450230;26;20291;-82
2024/04/16 06:57:49;;;;;;;3.75;1.13;;;12.30;63.60;13.70;99684.00;;;;5451539;26;20267;-81
2024/04/16 07:00:18;;;;;;;3.38;0.90;;;12.30;63.60;13.70;99667.00;;;;5438671;26;20862;-85
2024/04/16 07:02:44;;;;;;;4.82;0.75;;;12.30;63.60;13.70;99662.00;;;;5447679;26;20340;-85
2024/04/16 07:05:13;;;;;;;4.68;1.48;;;12.30;63.60;13.70;99664.00;;;;5445268;26;20235;-89
2024/04/16 07:07:41;;;;;;;4.38;1.02;;;12.30;63.60;13.70;99680.00;;;;5450587;26;20243;-90
2024/04/16 07:10:10;;;;;;;3.72;1.05;;;12.30;63.90;13.70;99681.00;;;;5448938;26;20267;-84
2024/04/16 07:12:36;;;;;;;2.05;0.52;;;12.30;63.80;13.70;99677.00;;;;5446176;26;20240;-81
2024/04/16 07:15:06;;;;;;;3.50;1.05;;;12.30;63.90;13.80;99665.00;;;;5451552;26;20568;-86
2024/04/16 07:17:32;;;;;;;5.05;1.02;;;12.30;64.10;13.80;99677.00;;;;5446446;26;20352;-83
2024/04/16 07:20:00;;;;;;;5.72;1.42;;;12.30;64.30;13.80;99681.00;;;;5450145;26;20262;-86
2024/04/16 07:22:26;;;;;;;5.78;0.82;;;12.40;64.30;13.90;99678.00;;;;5451286;26;20240;-81
2024/04/16 07:24:58;;;;;;;4.90;1.00;;;12.40;64.30;13.90;99684.00;;;;5450793;26;20244;-86
2024/04/16 07:27:24;;;;;;;3.63;1.00;;;12.40;65.10;13.90;99668.00;;;;5450501;26;20322;-84
2024/04/16 07:29:52;;;;;;;3.88;0.90;;;12.40;64.50;13.90;99675.00;;;;5444876;26;20277;-86
2024/04/16 07:32:18;;;;;;;5.22;1.15;;;12.50;64.30;14.00;99681.00;;;;5450698;26;20329;-85
2024/04/16 07:34:47;;;;;;;4.80;1.00;;;12.50;64.40;14.00;99696.00;;;;5450813;26;20379;-85
2024/04/16 07:37:13;;;;;;;3.65;1.02;;;12.60;64.90;14.00;99693.00;;;;5451207;26;20247;-83
2024/04/16 07:39:42;;;;;;;4.63;0.88;;;12.60;64.20;14.10;99690.00;;;;5448476;26;20236;-86
2024/04/16 07:42:11;;;;;;;5.93;1.58;;;12.60;64.20;14.10;99685.00;;;;5451055;26;20241;-85
2024/04/16 07:44:39;;;;;;;2.28;0.93;;;12.70;64.10;14.10;99700.00;;;;5447553;26;20274;-85
2024/04/16 07:47:06;;;;;;;5.35;1.00;;;12.70;64.80;14.10;99684.00;;;;5449540;26;20298;-86
2024/04/16 07:49:35;;;;;;;3.30;1.08;;;12.70;64.00;14.10;99697.00;;;;5450360;26;20283;-83
2024/04/16 07:52:01;;;;;;;6.53;1.38;;;12.80;64.10;14.20;99718.00;;;;5450325;26;20250;-86
2024/04/16 07:54:29;;;;;;;4.82;1.02;;;12.80;64.10;14.20;99721.00;;;;5453180;26;20236;-83
2024/04/16 07:56:55;;;;;;;5.03;1.00;;;12.80;64.00;14.20;99716.00;;;;5450273;26;20252;-85
2024/04/16 07:59:27;;;;;;;5.15;1.30;;;12.80;64.00;14.10;99725.00;;;;5452736;26;20266;-85
2024/04/16 08:01:53;;;;;;;5.63;1.02;;;12.80;64.80;14.20;99732.00;;;;5454047;26;20248;-91
2024/04/16 08:04:21;;;;;;;3.05;1.05;;;12.80;63.70;14.10;99744.00;;;;5454507;26;20224;-85
2024/04/16 08:06:48;;;;;;;3.55;1.00;;;12.80;63.70;14.10;99761.00;;;;5454522;26;20278;-86
2024/04/16 08:09:17;;;;;;;6.63;1.50;;;12.80;63.70;14.10;99750.00;;;;5453306;26;20369;-89
2024/04/16 08:11:44;;;;;;;9.10;1.27;;;12.80;64.00;14.10;99803.00;;;;5455503;26;20243;-84
2024/04/16 08:14:17;;;;;;;2.30;0.90;;;12.70;63.90;14.00;99791.00;;;;5453409;26;20231;-90
2024/04/16 08:16:46;;;;;;;3.28;1.15;;;12.70;63.80;13.90;99802.00;;;;5454041;26;20568;-88
2024/04/16 08:19:15;;;;;;;2.20;0.80;;;12.70;63.50;13.90;99795.00;;;;5453697;26;20236;-90
2024/04/16 08:21:41;;;;;;;1.95;0.80;;;12.60;63.60;13.90;99798.00;;;;5454327;26;20660;-84
2024/04/16 08:24:10;;;;;;;2.28;0.80;;;12.60;63.50;13.80;99809.00;;;;5454306;26;20232;-88
2024/04/16 08:26:36;;;;;;;4.60;1.00;;;12.50;63.80;13.80;99810.00;;;;5456355;26;20325;-87
2024/04/16 08:29:04;;;;;;;4.78;1.08;;;12.50;63.60;13.80;99813.00;;;;5454588;26;20232;-90
2024/04/16 08:31:30;;;;;;;3.05;0.70;;;12.50;63.70;13.80;99812.00;;;;5457384;26;20318;-87
2024/04/16 08:34:02;;;;;;;2.25;1.10;;;12.40;64.00;13.80;99822.00;;;;5455134;26;20228;-86
2024/04/16 08:36:29;;;;;;;5.90;1.48;;;12.50;64.40;13.90;99827.00;;;;5455510;26;20279;-81
2024/04/16 08:38:58;;;;;;;4.10;1.02;;;12.50;64.50;13.90;99822.00;;;;5450100;26;20231;-87
2024/04/16 08:41:24;;;;;;;5.53;0.90;;;12.50;64.80;14.00;99803.00;;;;5452336;26;20247;-88
2024/04/16 08:43:54;;;;;;;4.47;0.98;;;12.50;65.20;14.00;99827.00;;;;5453703;26;20405;-82
2024/04/16 08:46:22;;;;;;;4.63;0.80;;;12.60;65.60;14.10;99840.00;;;;5417608;26;20256;-81
2024/04/16 08:48:51;;;;;;;2.95;0.75;;;12.60;65.30;14.20;99838.00;;;;5428044;26;20228;-83
2024/04/16 08:51:21;;;;;;;1.83;0.60;;;12.70;65.40;14.30;99838.00;;;;5453194;26;20708;-87
2024/04/16 08:53:53;;;;;;;2.35;0.85;;;12.80;65.50;14.40;99841.00;;;;5452788;26;20646;-84
2024/04/16 08:56:22;;;;;;;3.30;0.80;;;12.90;65.30;14.50;99855.00;;;;5453461;26;20301;-87
2024/04/16 08:58:51;;;;;;;3.92;0.60;;;13.00;65.30;14.60;99870.00;;;;5451900;26;20319;-82
2024/04/16 09:01:18;;;;;;;2.10;0.60;;;13.10;65.50;14.70;99876.00;;;;5450534;26;20299;-82
2024/04/16 09:03:49;;;;;;;3.08;0.60;;;13.10;64.80;14.80;99870.00;;;;5452054;26;20232;-86
2024/04/16 09:06:20;;;;;;;1.65;0.50;;;13.20;64.80;14.90;99924.00;;;;5437113;26;20232;-82
2024/04/16 09:08:51;;;;;;;3.22;0.57;;;13.30;64.80;15.00;99887.00;;;;5450854;26;20229;-84
2024/04/16 09:11:17;;;;;;;5.32;0.63;;;13.40;64.70;15.10;99906.00;;;;5450709;26;20244;-86
2024/04/16 09:13:46;;;;;;;6.57;0.75;;;13.50;64.50;15.20;99924.00;;;;5452866;26;20789;-84
2024/04/16 09:16:13;;;;;;;3.83;0.93;;;13.60;64.70;15.40;99915.00;;;;5417088;26;20233;-86
2024/04/16 09:18:42;;;;;;;3.47;0.70;;;13.70;64.70;15.50;99933.00;;;;5444641;26;20269;-80
2024/04/16 09:21:08;;;;;;;1.85;0.85;;;13.80;64.70;15.50;99926.00;;;;5451952;26;20273;-85
2024/04/16 09:23:39;;;;;;;4.45;0.93;;;13.90;64.30;15.60;99947.00;;;;5452388;26;20348;-86
2024/04/16 09:26:12;;;;;;;9.23;0.70;;;13.90;63.80;15.60;99943.00;;;;5451032;26;20691;-84
2024/04/16 09:28:49;;;;;;;2.15;0.47;;;14.00;63.50;15.60;99947.00;;;;5450248;26;20842;-83
2024/04/16 09:31:16;;;;;;;1.20;0.43;;;14.10;63.10;15.80;99945.00;;;;5452430;26;20741;-84
2024/04/16 09:33:44;;;;;;;1.55;0.50;;;14.20;63.10;15.90;99963.00;;;;5447698;26;20329;-85
2024/04/16 09:36:12;;;;;;;3.05;0.90;;;14.30;63.20;15.90;99957.00;;;;5448110;26;20351;-85
2024/04/16 09:38:46;;;;;;;3.30;0.65;;;14.40;63.00;16.00;99962.00;;;;5452104;26;20232;-81
2024/04/16 09:41:14;;;;;;;1.35;0.57;;;14.40;62.60;16.10;99971.00;;;;5451803;26;20236;-81
2024/04/16 09:43:44;;;;;;;3.67;0.40;;;14.50;62.50;16.10;99977.00;;;;5452340;26;20293;-84
2024/04/16 09:46:12;;;;;;;0.77;0.40;;;14.60;62.20;16.20;99987.00;;;;5444915;26;20251;-84
2024/04/16 09:48:41;;;;;;;5.93;1.10;;;14.70;62.10;16.30;99982.00;;;;5450020;26;20706;-82
2024/04/16 09:51:08;;;;;;;2.03;0.55;;;14.80;62.00;16.40;99990.00;;;;5449041;26;20575;-81
2024/04/16 09:53:39;;;;;;;3.85;0.55;;;14.80;61.70;16.50;99990.00;;;;5443904;26;20232;-79
2024/04/16 09:56:09;;;;;;;4.40;1.00;;;14.90;61.40;16.50;99996.00;;;;5450111;26;20244;-79
2024/04/16 09:58:39;;;;;;;3.35;0.77;;;15.00;61.00;16.60;100010.00;;;;5447214;26;20228;-85
2024/04/16 10:01:05;;;;;;;3.95;0.93;;;15.10;61.00;16.60;100014.00;;;;5445326;26;20236;-84
2024/04/16 10:03:34;;;;;;;2.47;0.38;;;15.10;60.80;16.70;100023.00;;;;5448687;26;20225;-84
2024/04/16 10:06:00;;;;;;;4.03;0.50;;;15.20;60.60;16.60;100022.00;;;;5447329;26;20283;-83
2024/04/16 10:08:29;;;;;;;1.38;0.32;;;15.20;60.10;16.60;100027.00;;;;5449447;26;20228;-85
2024/04/16 10:10:58;;;;;;;0.63;0.30;;;15.20;59.10;16.60;100019.00;;;;5445414;26;20260;-80
2024/04/16 10:13:32;;;;;;;2.53;0.50;;;15.20;59.40;16.70;100026.00;;;;5449794;26;20337;-84
2024/04/16 10:15:58;;;;;;;2.95;1.02;;;15.30;59.60;16.80;100028.00;;;;5449871;26;20239;-79
2024/04/16 10:18:28;;;;;;;2.25;0.38;;;15.30;60.10;16.90;100032.00;;;;5451727;26;20796;-85
2024/04/16 10:20:58;;;;;;;3.55;0.40;;;15.40;60.00;17.00;100034.00;;;;5452152;26;20248;-83
2024/04/16 10:23:31;;;;;;;1.52;0.30;;;15.50;59.80;17.10;100036.00;;;;5447625;26;20228;-83
2024/04/16 10:25:58;;;;;;;3.47;0.43;;;15.60;59.80;17.20;100044.00;;;;5451083;26;20228;-83
2024/04/16 10:28:33;;;;;;;1.77;0.28;;;15.60;59.60;17.20;100046.00;;;;5451516;26;20262;-86
2024/04/16 10:31:01;;;;;;;2.15;0.43;;;15.70;59.20;17.30;100038.00;;;;5452179;26;20231;-85
2024/04/16 10:33:34;;;;;;;1.33;0.40;;;15.80;59.00;17.40;100053.00;;;;5450239;26;20295;-85
2024/04/16 10:36:00;;;;;;;1.35;0.30;;;15.90;58.70;17.40;100058.00;;;;5451736;26;20344;-84
2024/04/16 10:38:29;;;;;;;1.48;0.20;;;15.90;58.20;17.50;100066.00;;;;5447544;26;20594;-83
2024/04/16 10:40:56;;;;;;;2.10;0.50;;;15.90;58.20;17.50;100068.00;;;;5451245;26;20576;-82
2024/04/16 10:43:29;;;;;;;1.35;0.30;;;16.00;58.30;17.60;100074.00;;;;5451099;26;20792;-82
2024/04/16 10:45:55;;;;;;;1.23;0.28;;;16.00;58.00;17.60;100080.00;;;;5449001;26;20248;-83
2024/04/16 10:48:25;;;;;;;1.48;0.30;;;16.10;57.90;17.50;100083.00;;;;5450997;26;20232;-81
2024/04/16 10:50:51;;;;;;;1.75;0.30;;;16.10;57.60;17.50;100090.00;;;;5445466;26;20239;-86
2024/04/16 10:53:21;;;;;;;1.83;0.38;;;16.10;57.10;17.50;100095.00;;;;5446761;26;20328;-85
2024/04/16 10:55:49;;;;;;;6.55;0.55;;;16.10;57.20;17.50;100098.00;;;;5445006;26;20816;-83
2024/04/16 10:58:18;;;;;;;0.55;0.30;;;16.10;57.30;17.50;100093.00;;;;5447269;26;20301;-83
2024/04/16 11:00:53;;;;;;;5.20;0.47;;;16.10;57.50;17.50;100100.00;;;;5447953;26;20615;-80